sensor_id;sensor_type;location;lat;lon;timestamp;temperature;humidity
45837;DHT22;31548;51.420;-0.040;2023-07-20T00:00:20;19.00;99.90
45837;DHT22;31548;51.420;-0.040;2023-07-20T00:02:50;19.00;99.90
45837;DHT22;31548;51.420;-0.040;2023-07-20T00:05:18;19.00;99.90
45837;DHT22;31548;51.420;-0.040;2023-07-20T00:07:48;19.00;99.90
45837;DHT22;31548;51.420;-0.040;2023-07-20T00:10:19;18.90;99.90
45837;DHT22;31548;51.420;-0.040;2023-07-20T00:12:46;18.90;99.90
45837;DHT22;31548;51.420;-0.040;2023-07-20T00:15:14;18.80;99.90
45837;DHT22;31548;51.420;-0.040;2023-07-20T00:17:42;18.80;99.90
45837;DHT22;31548;51.420;-0.040;2023-07-20T00:20:10;18.80;99.90
45837;DHT22;31548;51.420;-0.040;2023-07-20T00:22:38;18.70;99.90
45837;DHT22;31548;51.420;-0.040;2023-07-20T00:25:06;18.70;99.90
45837;DHT22;31548;51.420;-0.040;2023-07-20T00:27:33;18.70;99.90
45837;DHT22;31548;51.420;-0.040;2023-07-20T00:30:00;18.60;99.90
45837;DHT22;31548;51.420;-0.040;2023-07-20T00:32:28;18.60;99.90
45837;DHT22;31548;51.420;-0.040;2023-07-20T00:34:56;18.50;99.90
45837;DHT22;31548;51.420;-0.040;2023-07-20T00:37:24;18.50;99.90
45837;DHT22;31548;51.420;-0.040;2023-07-20T00:39:52;18.40;99.90
45837;DHT22;31548;51.420;-0.040;2023-07-20T00:42:20;18.40;99.90
45837;DHT22;31548;51.420;-0.040;2023-07-20T00:44:47;18.40;99.90
45837;DHT22;31548;51.420;-0.040;2023-07-20T00:47:15;18.40;99.90
45837;DHT22;31548;51.420;-0.040;2023-07-20T00:49:43;18.40;99.90
45837;DHT22;31548;51.420;-0.040;2023-07-20T00:52:13;18.40;99.90
45837;DHT22;31548;51.420;-0.040;2023-07-20T00:54:43;18.40;99.90
45837;DHT22;31548;51.420;-0.040;2023-07-20T00:57:15;18.40;99.90
45837;DHT22;31548;51.420;-0.040;2023-07-20T00:59:45;18.40;99.90
45837;DHT22;31548;51.420;-0.040;2023-07-20T01:02:12;18.40;99.90
45837;DHT22;31548;51.420;-0.040;2023-07-20T01:04:40;18.30;99.90
45837;DHT22;31548;51.420;-0.040;2023-07-20T01:07:16;18.30;99.90
45837;DHT22;31548;51.420;-0.040;2023-07-20T01:09:51;18.30;99.90
45837;DHT22;31548;51.420;-0.040;2023-07-20T01:12:31;18.20;99.90
45837;DHT22;31548;51.420;-0.040;2023-07-20T01:15:00;18.10;99.90
45837;DHT22;31548;51.420;-0.040;2023-07-20T01:17:28;18.10;99.90
45837;DHT22;31548;51.420;-0.040;2023-07-20T01:19:55;18.00;99.90
45837;DHT22;31548;51.420;-0.040;2023-07-20T01:33:22;17.70;99.90
45837;DHT22;31548;51.420;-0.040;2023-07-20T01:35:55;17.70;99.90
45837;DHT22;31548;51.420;-0.040;2023-07-20T01:38:24;17.70;99.90
45837;DHT22;31548;51.420;-0.040;2023-07-20T01:40:52;17.70;99.90
45837;DHT22;31548;51.420;-0.040;2023-07-20T01:43:20;17.70;99.90
45837;DHT22;31548;51.420;-0.040;2023-07-20T01:45:47;17.70;99.90
45837;DHT22;31548;51.420;-0.040;2023-07-20T01:48:15;17.70;99.90
45837;DHT22;31548;51.420;-0.040;2023-07-20T01:50:42;17.80;99.90
45837;DHT22;31548;51.420;-0.040;2023-07-20T01:53:10;17.70;99.90
45837;DHT22;31548;51.420;-0.040;2023-07-20T01:55:37;17.70;99.90
45837;DHT22;31548;51.420;-0.040;2023-07-20T01:58:05;17.60;99.90
45837;DHT22;31548;51.420;-0.040;2023-07-20T02:00:33;17.60;99.90
45837;DHT22;31548;51.420;-0.040;2023-07-20T02:03:01;17.60;99.90
45837;DHT22;31548;51.420;-0.040;2023-07-20T02:05:28;17.60;99.90
45837;DHT22;31548;51.420;-0.040;2023-07-20T02:07:56;17.50;99.90
45837;DHT22;31548;51.420;-0.040;2023-07-20T02:10:23;17.40;99.90
45837;DHT22;31548;51.420;-0.040;2023-07-20T02:12:51;17.40;99.90
45837;DHT22;31548;51.420;-0.040;2023-07-20T02:15:19;17.30;99.90
45837;DHT22;31548;51.420;-0.040;2023-07-20T02:17:46;17.30;99.90
45837;DHT22;31548;51.420;-0.040;2023-07-20T02:20:14;17.20;99.90
45837;DHT22;31548;51.420;-0.040;2023-07-20T02:22:41;17.20;99.90
45837;DHT22;31548;51.420;-0.040;2023-07-20T02:25:09;17.20;99.90
45837;DHT22;31548;51.420;-0.040;2023-07-20T02:27:37;17.20;99.90
45837;DHT22;31548;51.420;-0.040;2023-07-20T02:30:05;17.20;99.90
45837;DHT22;31548;51.420;-0.040;2023-07-20T02:32:34;17.10;99.90
45837;DHT22;31548;51.420;-0.040;2023-07-20T02:35:01;17.10;99.90
45837;DHT22;31548;51.420;-0.040;2023-07-20T02:37:32;17.10;99.90
45837;DHT22;31548;51.420;-0.040;2023-07-20T02:39:59;17.10;99.90
45837;DHT22;31548;51.420;-0.040;2023-07-20T02:42:28;17.10;99.90
45837;DHT22;31548;51.420;-0.040;2023-07-20T02:44:55;17.20;99.90
45837;DHT22;31548;51.420;-0.040;2023-07-20T02:47:22;17.20;99.90
45837;DHT22;31548;51.420;-0.040;2023-07-20T02:49:50;17.20;99.90
45837;DHT22;31548;51.420;-0.040;2023-07-20T02:52:18;17.20;99.90
45837;DHT22;31548;51.420;-0.040;2023-07-20T02:54:48;17.20;99.90
45837;DHT22;31548;51.420;-0.040;2023-07-20T02:57:16;17.10;99.90
45837;DHT22;31548;51.420;-0.040;2023-07-20T02:59:43;17.10;99.90
45837;DHT22;31548;51.420;-0.040;2023-07-20T03:02:10;17.10;99.90
45837;DHT22;31548;51.420;-0.040;2023-07-20T03:04:38;17.20;99.90
45837;DHT22;31548;51.420;-0.040;2023-07-20T03:07:05;17.10;99.90
45837;DHT22;31548;51.420;-0.040;2023-07-20T03:09:34;17.10;99.90
45837;DHT22;31548;51.420;-0.040;2023-07-20T03:12:01;17.10;99.90
45837;DHT22;31548;51.420;-0.040;2023-07-20T03:14:29;17.10;99.90
45837;DHT22;31548;51.420;-0.040;2023-07-20T03:16:58;17.10;99.90
45837;DHT22;31548;51.420;-0.040;2023-07-20T03:19:25;17.10;99.90
45837;DHT22;31548;51.420;-0.040;2023-07-20T03:21:53;17.10;99.90
45837;DHT22;31548;51.420;-0.040;2023-07-20T03:24:20;17.00;99.90
45837;DHT22;31548;51.420;-0.040;2023-07-20T03:26:48;17.00;99.90
45837;DHT22;31548;51.420;-0.040;2023-07-20T03:29:15;16.90;99.90
45837;DHT22;31548;51.420;-0.040;2023-07-20T03:31:44;16.90;99.90
45837;DHT22;31548;51.420;-0.040;2023-07-20T03:34:11;16.80;99.90
45837;DHT22;31548;51.420;-0.040;2023-07-20T03:36:42;16.80;99.90
45837;DHT22;31548;51.420;-0.040;2023-07-20T03:39:11;16.70;99.90
45837;DHT22;31548;51.420;-0.040;2023-07-20T03:41:38;16.70;99.90
45837;DHT22;31548;51.420;-0.040;2023-07-20T03:44:06;16.70;99.90
45837;DHT22;31548;51.420;-0.040;2023-07-20T03:46:33;16.70;99.90
45837;DHT22;31548;51.420;-0.040;2023-07-20T03:49:01;16.70;99.90
45837;DHT22;31548;51.420;-0.040;2023-07-20T03:51:29;16.70;99.90
45837;DHT22;31548;51.420;-0.040;2023-07-20T03:53:57;16.60;99.90
45837;DHT22;31548;51.420;-0.040;2023-07-20T03:56:25;16.60;99.90
45837;DHT22;31548;51.420;-0.040;2023-07-20T03:58:52;16.50;99.90
45837;DHT22;31548;51.420;-0.040;2023-07-20T04:01:19;16.50;99.90
45837;DHT22;31548;51.420;-0.040;2023-07-20T04:03:47;16.50;99.90
45837;DHT22;31548;51.420;-0.040;2023-07-20T04:06:16;16.40;99.90
45837;DHT22;31548;51.420;-0.040;2023-07-20T04:08:45;16.40;99.90
45837;DHT22;31548;51.420;-0.040;2023-07-20T04:11:14;16.30;99.90
45837;DHT22;31548;51.420;-0.040;2023-07-20T04:13:42;16.30;99.90
45837;DHT22;31548;51.420;-0.040;2023-07-20T04:16:10;16.20;99.90
45837;DHT22;31548;51.420;-0.040;2023-07-20T04:18:37;16.20;99.90
45837;DHT22;31548;51.420;-0.040;2023-07-20T04:21:04;16.20;99.90
45837;DHT22;31548;51.420;-0.040;2023-07-20T04:23:32;16.30;99.90
45837;DHT22;31548;51.420;-0.040;2023-07-20T04:25:59;16.20;99.90
45837;DHT22;31548;51.420;-0.040;2023-07-20T04:28:27;16.30;99.90
45837;DHT22;31548;51.420;-0.040;2023-07-20T04:30:54;16.20;99.90
45837;DHT22;31548;51.420;-0.040;2023-07-20T04:33:22;16.10;99.90
45837;DHT22;31548;51.420;-0.040;2023-07-20T04:35:54;16.20;99.90
45837;DHT22;31548;51.420;-0.040;2023-07-20T04:38:33;16.20;99.90
45837;DHT22;31548;51.420;-0.040;2023-07-20T04:41:08;16.20;99.90
45837;DHT22;31548;51.420;-0.040;2023-07-20T04:43:43;16.20;99.90
45837;DHT22;31548;51.420;-0.040;2023-07-20T04:46:12;16.20;99.90
45837;DHT22;31548;51.420;-0.040;2023-07-20T04:48:41;16.20;99.90
45837;DHT22;31548;51.420;-0.040;2023-07-20T04:51:09;16.20;99.90
45837;DHT22;31548;51.420;-0.040;2023-07-20T04:53:39;16.10;99.90
45837;DHT22;31548;51.420;-0.040;2023-07-20T04:56:08;16.10;99.90
45837;DHT22;31548;51.420;-0.040;2023-07-20T04:58:35;16.20;99.90
45837;DHT22;31548;51.420;-0.040;2023-07-20T05:01:03;16.20;99.90
45837;DHT22;31548;51.420;-0.040;2023-07-20T05:03:31;16.20;99.90
45837;DHT22;31548;51.420;-0.040;2023-07-20T05:05:59;16.20;99.90
45837;DHT22;31548;51.420;-0.040;2023-07-20T05:08:26;16.20;99.90
45837;DHT22;31548;51.420;-0.040;2023-07-20T05:10:54;16.20;99.90
45837;DHT22;31548;51.420;-0.040;2023-07-20T05:13:22;16.20;99.90
45837;DHT22;31548;51.420;-0.040;2023-07-20T05:15:52;16.20;99.90
45837;DHT22;31548;51.420;-0.040;2023-07-20T05:18:21;16.10;99.90
45837;DHT22;31548;51.420;-0.040;2023-07-20T05:20:50;16.10;99.90
45837;DHT22;31548;51.420;-0.040;2023-07-20T05:23:18;16.20;99.90
45837;DHT22;31548;51.420;-0.040;2023-07-20T05:25:53;16.20;99.90
45837;DHT22;31548;51.420;-0.040;2023-07-20T05:28:21;16.20;99.90
45837;DHT22;31548;51.420;-0.040;2023-07-20T05:30:48;16.30;99.90
45837;DHT22;31548;51.420;-0.040;2023-07-20T05:33:20;16.30;99.90
45837;DHT22;31548;51.420;-0.040;2023-07-20T05:35:47;16.30;99.90
45837;DHT22;31548;51.420;-0.040;2023-07-20T05:38:15;16.40;99.90
45837;DHT22;31548;51.420;-0.040;2023-07-20T05:40:44;16.40;99.90
45837;DHT22;31548;51.420;-0.040;2023-07-20T05:43:12;16.40;99.90
45837;DHT22;31548;51.420;-0.040;2023-07-20T05:45:43;16.50;99.90
45837;DHT22;31548;51.420;-0.040;2023-07-20T05:48:12;16.50;99.90
45837;DHT22;31548;51.420;-0.040;2023-07-20T05:50:43;16.50;99.90
45837;DHT22;31548;51.420;-0.040;2023-07-20T05:53:11;16.50;99.90
45837;DHT22;31548;51.420;-0.040;2023-07-20T05:55:38;16.60;99.90
45837;DHT22;31548;51.420;-0.040;2023-07-20T05:58:07;16.50;99.90
45837;DHT22;31548;51.420;-0.040;2023-07-20T06:00:34;16.60;99.90
45837;DHT22;31548;51.420;-0.040;2023-07-20T06:03:02;16.70;99.90
45837;DHT22;31548;51.420;-0.040;2023-07-20T06:05:30;16.70;99.90
45837;DHT22;31548;51.420;-0.040;2023-07-20T06:07:58;16.80;99.90
45837;DHT22;31548;51.420;-0.040;2023-07-20T06:10:27;16.90;99.90
45837;DHT22;31548;51.420;-0.040;2023-07-20T06:12:55;16.90;99.90
45837;DHT22;31548;51.420;-0.040;2023-07-20T06:15:32;16.90;99.90
45837;DHT22;31548;51.420;-0.040;2023-07-20T06:18:01;16.90;99.90
45837;DHT22;31548;51.420;-0.040;2023-07-20T06:20:31;17.00;99.90
45837;DHT22;31548;51.420;-0.040;2023-07-20T06:22:58;17.00;99.90
45837;DHT22;31548;51.420;-0.040;2023-07-20T06:25:25;17.10;99.90
45837;DHT22;31548;51.420;-0.040;2023-07-20T06:27:55;17.10;99.90
45837;DHT22;31548;51.420;-0.040;2023-07-20T06:30:22;17.10;99.90
45837;DHT22;31548;51.420;-0.040;2023-07-20T06:32:51;17.20;99.90
45837;DHT22;31548;51.420;-0.040;2023-07-20T06:35:19;17.20;99.90
45837;DHT22;31548;51.420;-0.040;2023-07-20T06:37:46;17.30;99.90
45837;DHT22;31548;51.420;-0.040;2023-07-20T06:40:13;17.30;99.90
45837;DHT22;31548;51.420;-0.040;2023-07-20T06:42:44;17.40;99.90
45837;DHT22;31548;51.420;-0.040;2023-07-20T06:45:14;17.40;99.90
45837;DHT22;31548;51.420;-0.040;2023-07-20T06:47:41;17.50;99.90
45837;DHT22;31548;51.420;-0.040;2023-07-20T06:50:10;17.50;99.90
45837;DHT22;31548;51.420;-0.040;2023-07-20T06:52:43;17.60;99.90
45837;DHT22;31548;51.420;-0.040;2023-07-20T06:55:11;17.70;99.90
45837;DHT22;31548;51.420;-0.040;2023-07-20T06:57:38;17.70;99.90
45837;DHT22;31548;51.420;-0.040;2023-07-20T07:00:06;17.70;99.90
45837;DHT22;31548;51.420;-0.040;2023-07-20T07:02:34;17.70;99.90
45837;DHT22;31548;51.420;-0.040;2023-07-20T07:05:03;17.70;99.90
45837;DHT22;31548;51.420;-0.040;2023-07-20T07:07:47;17.70;99.90
45837;DHT22;31548;51.420;-0.040;2023-07-20T07:10:14;17.70;99.90
45837;DHT22;31548;51.420;-0.040;2023-07-20T07:12:41;17.70;99.90
45837;DHT22;31548;51.420;-0.040;2023-07-20T07:15:09;17.60;99.90
45837;DHT22;31548;51.420;-0.040;2023-07-20T07:17:38;17.60;99.90
45837;DHT22;31548;51.420;-0.040;2023-07-20T07:20:06;17.60;99.90
45837;DHT22;31548;51.420;-0.040;2023-07-20T07:22:37;17.60;99.90
45837;DHT22;31548;51.420;-0.040;2023-07-20T07:25:05;17.60;99.90
45837;DHT22;31548;51.420;-0.040;2023-07-20T07:27:32;17.60;99.90
45837;DHT22;31548;51.420;-0.040;2023-07-20T07:30:00;17.60;99.90
45837;DHT22;31548;51.420;-0.040;2023-07-20T07:32:28;17.70;99.90
45837;DHT22;31548;51.420;-0.040;2023-07-20T07:34:55;17.70;99.90
45837;DHT22;31548;51.420;-0.040;2023-07-20T07:37:25;17.60;99.90
45837;DHT22;31548;51.420;-0.040;2023-07-20T07:39:52;17.60;99.90
45837;DHT22;31548;51.420;-0.040;2023-07-20T07:42:20;17.60;99.90
45837;DHT22;31548;51.420;-0.040;2023-07-20T07:44:50;17.70;99.90
45837;DHT22;31548;51.420;-0.040;2023-07-20T07:47:18;17.80;99.90
45837;DHT22;31548;51.420;-0.040;2023-07-20T07:49:45;17.80;99.90
45837;DHT22;31548;51.420;-0.040;2023-07-20T07:52:13;17.80;99.90
45837;DHT22;31548;51.420;-0.040;2023-07-20T07:54:41;17.80;99.90
45837;DHT22;31548;51.420;-0.040;2023-07-20T07:57:08;18.00;99.90
45837;DHT22;31548;51.420;-0.040;2023-07-20T07:59:36;18.00;99.90
45837;DHT22;31548;51.420;-0.040;2023-07-20T08:02:05;18.10;99.90
45837;DHT22;31548;51.420;-0.040;2023-07-20T08:04:33;18.20;99.90
45837;DHT22;31548;51.420;-0.040;2023-07-20T08:07:01;18.20;99.90
45837;DHT22;31548;51.420;-0.040;2023-07-20T08:09:29;18.30;99.90
45837;DHT22;31548;51.420;-0.040;2023-07-20T08:11:57;18.30;99.90
45837;DHT22;31548;51.420;-0.040;2023-07-20T08:14:24;18.40;99.90
45837;DHT22;31548;51.420;-0.040;2023-07-20T08:16:51;18.40;99.90
45837;DHT22;31548;51.420;-0.040;2023-07-20T08:19:20;18.40;99.90
45837;DHT22;31548;51.420;-0.040;2023-07-20T08:21:48;18.40;99.90
45837;DHT22;31548;51.420;-0.040;2023-07-20T08:24:15;18.40;99.90
45837;DHT22;31548;51.420;-0.040;2023-07-20T08:26:43;18.50;99.90
45837;DHT22;31548;51.420;-0.040;2023-07-20T08:29:11;18.40;99.90
45837;DHT22;31548;51.420;-0.040;2023-07-20T08:31:39;18.50;99.90
45837;DHT22;31548;51.420;-0.040;2023-07-20T08:34:07;18.40;99.90
45837;DHT22;31548;51.420;-0.040;2023-07-20T08:36:54;18.50;99.90
45837;DHT22;31548;51.420;-0.040;2023-07-20T08:39:22;18.50;99.90
45837;DHT22;31548;51.420;-0.040;2023-07-20T08:41:50;18.70;99.90
45837;DHT22;31548;51.420;-0.040;2023-07-20T08:44:19;18.80;99.90
45837;DHT22;31548;51.420;-0.040;2023-07-20T08:46:47;18.80;99.90
45837;DHT22;31548;51.420;-0.040;2023-07-20T08:49:17;18.80;99.90
45837;DHT22;31548;51.420;-0.040;2023-07-20T08:51:46;18.90;99.90
45837;DHT22;31548;51.420;-0.040;2023-07-20T08:54:16;19.00;99.90
45837;DHT22;31548;51.420;-0.040;2023-07-20T08:56:45;19.20;99.90
45837;DHT22;31548;51.420;-0.040;2023-07-20T08:59:16;19.40;99.90
45837;DHT22;31548;51.420;-0.040;2023-07-20T09:01:44;19.60;99.90
45837;DHT22;31548;51.420;-0.040;2023-07-20T09:04:13;19.70;99.90
45837;DHT22;31548;51.420;-0.040;2023-07-20T09:06:40;19.70;99.90
45837;DHT22;31548;51.420;-0.040;2023-07-20T09:09:11;19.80;99.90
45837;DHT22;31548;51.420;-0.040;2023-07-20T09:11:40;19.90;99.90
45837;DHT22;31548;51.420;-0.040;2023-07-20T09:14:09;20.00;99.90
45837;DHT22;31548;51.420;-0.040;2023-07-20T09:16:56;20.20;99.90
45837;DHT22;31548;51.420;-0.040;2023-07-20T09:19:23;20.20;99.90
45837;DHT22;31548;51.420;-0.040;2023-07-20T09:21:52;20.30;99.90
45837;DHT22;31548;51.420;-0.040;2023-07-20T09:24:19;20.30;99.90
45837;DHT22;31548;51.420;-0.040;2023-07-20T09:26:48;20.30;99.90
45837;DHT22;31548;51.420;-0.040;2023-07-20T09:29:20;20.30;99.90
45837;DHT22;31548;51.420;-0.040;2023-07-20T09:32:03;20.30;99.90
45837;DHT22;31548;51.420;-0.040;2023-07-20T09:34:31;20.50;99.90
45837;DHT22;31548;51.420;-0.040;2023-07-20T09:37:02;20.60;99.90
45837;DHT22;31548;51.420;-0.040;2023-07-20T09:39:30;20.70;99.90
45837;DHT22;31548;51.420;-0.040;2023-07-20T09:42:01;20.80;99.90
45837;DHT22;31548;51.420;-0.040;2023-07-20T09:44:32;20.90;99.90
45837;DHT22;31548;51.420;-0.040;2023-07-20T09:47:03;21.00;99.90
45837;DHT22;31548;51.420;-0.040;2023-07-20T09:49:32;21.00;99.90
45837;DHT22;31548;51.420;-0.040;2023-07-20T09:52:20;21.20;99.90
45837;DHT22;31548;51.420;-0.040;2023-07-20T09:54:51;21.50;99.60
45837;DHT22;31548;51.420;-0.040;2023-07-20T09:57:18;21.40;99.70
45837;DHT22;31548;51.420;-0.040;2023-07-20T09:59:48;21.10;99.80
45837;DHT22;31548;51.420;-0.040;2023-07-20T10:02:32;21.00;99.50
45837;DHT22;31548;51.420;-0.040;2023-07-20T10:05:01;20.90;99.60
45837;DHT22;31548;51.420;-0.040;2023-07-20T10:07:31;20.80;99.00
45837;DHT22;31548;51.420;-0.040;2023-07-20T10:10:01;20.60;99.80
45837;DHT22;31548;51.420;-0.040;2023-07-20T10:12:31;20.60;99.80
45837;DHT22;31548;51.420;-0.040;2023-07-20T10:17:32;20.80;99.90
45837;DHT22;31548;51.420;-0.040;2023-07-20T10:20:01;20.80;99.90
45837;DHT22;31548;51.420;-0.040;2023-07-20T10:22:35;20.80;99.40
45837;DHT22;31548;51.420;-0.040;2023-07-20T10:25:09;20.80;99.80
45837;DHT22;31548;51.420;-0.040;2023-07-20T10:27:37;21.10;99.70
45837;DHT22;31548;51.420;-0.040;2023-07-20T10:30:06;21.20;99.10
45837;DHT22;31548;51.420;-0.040;2023-07-20T10:32:34;21.30;99.40
45837;DHT22;31548;51.420;-0.040;2023-07-20T10:35:15;21.50;98.90
45837;DHT22;31548;51.420;-0.040;2023-07-20T10:37:53;21.60;97.90
45837;DHT22;31548;51.420;-0.040;2023-07-20T10:40:34;21.80;97.90
45837;DHT22;31548;51.420;-0.040;2023-07-20T10:43:09;21.90;96.60
45837;DHT22;31548;51.420;-0.040;2023-07-20T10:45:49;21.90;96.70
45837;DHT22;31548;51.420;-0.040;2023-07-20T10:48:19;21.80;96.40
45837;DHT22;31548;51.420;-0.040;2023-07-20T10:51:13;22.00;96.70
45837;DHT22;31548;51.420;-0.040;2023-07-20T10:53:41;22.40;96.40
45837;DHT22;31548;51.420;-0.040;2023-07-20T10:56:13;22.70;96.30
45837;DHT22;31548;51.420;-0.040;2023-07-20T10:58:43;23.00;95.70
45837;DHT22;31548;51.420;-0.040;2023-07-20T11:01:17;23.10;95.20
45837;DHT22;31548;51.420;-0.040;2023-07-20T11:03:49;23.20;95.20
45837;DHT22;31548;51.420;-0.040;2023-07-20T11:09:10;23.30;95.10
45837;DHT22;31548;51.420;-0.040;2023-07-20T11:11:46;23.10;95.00
45837;DHT22;31548;51.420;-0.040;2023-07-20T11:14:22;23.30;94.80
45837;DHT22;31548;51.420;-0.040;2023-07-20T11:16:50;23.30;95.00
45837;DHT22;31548;51.420;-0.040;2023-07-20T11:19:25;23.40;94.10
45837;DHT22;31548;51.420;-0.040;2023-07-20T11:21:57;23.30;94.80
45837;DHT22;31548;51.420;-0.040;2023-07-20T11:24:27;23.60;94.30
45837;DHT22;31548;51.420;-0.040;2023-07-20T11:26:55;23.80;93.70
45837;DHT22;31548;51.420;-0.040;2023-07-20T11:29:23;23.70;93.30
45837;DHT22;31548;51.420;-0.040;2023-07-20T11:32:00;23.40;93.80
45837;DHT22;31548;51.420;-0.040;2023-07-20T11:34:29;23.40;93.60
45837;DHT22;31548;51.420;-0.040;2023-07-20T11:36:57;22.90;92.90
45837;DHT22;31548;51.420;-0.040;2023-07-20T11:39:27;23.00;93.30
45837;DHT22;31548;51.420;-0.040;2023-07-20T11:41:56;23.20;93.30
45837;DHT22;31548;51.420;-0.040;2023-07-20T11:44:26;23.40;93.10
45837;DHT22;31548;51.420;-0.040;2023-07-20T11:47:03;23.50;93.30
45837;DHT22;31548;51.420;-0.040;2023-07-20T11:49:36;23.60;93.10
45837;DHT22;31548;51.420;-0.040;2023-07-20T11:52:11;23.80;92.50
45837;DHT22;31548;51.420;-0.040;2023-07-20T11:54:41;23.50;93.00
45837;DHT22;31548;51.420;-0.040;2023-07-20T11:57:18;23.40;93.40
45837;DHT22;31548;51.420;-0.040;2023-07-20T12:00:01;23.30;93.30
45837;DHT22;31548;51.420;-0.040;2023-07-20T12:02:33;23.20;93.40
45837;DHT22;31548;51.420;-0.040;2023-07-20T12:05:02;23.40;93.10
45837;DHT22;31548;51.420;-0.040;2023-07-20T12:07:35;23.70;93.90
45837;DHT22;31548;51.420;-0.040;2023-07-20T12:10:09;23.60;93.20
45837;DHT22;31548;51.420;-0.040;2023-07-20T12:12:42;23.80;92.00
45837;DHT22;31548;51.420;-0.040;2023-07-20T12:15:19;23.90;92.10
45837;DHT22;31548;51.420;-0.040;2023-07-20T12:17:50;23.80;93.00
45837;DHT22;31548;51.420;-0.040;2023-07-20T12:20:37;23.70;92.10
45837;DHT22;31548;51.420;-0.040;2023-07-20T12:23:09;24.10;92.10
45837;DHT22;31548;51.420;-0.040;2023-07-20T12:25:44;23.60;93.50
45837;DHT22;31548;51.420;-0.040;2023-07-20T12:28:17;23.40;93.70
45837;DHT22;31548;51.420;-0.040;2023-07-20T12:30:45;23.40;93.70
45837;DHT22;31548;51.420;-0.040;2023-07-20T12:33:13;23.40;92.50
45837;DHT22;31548;51.420;-0.040;2023-07-20T12:35:44;23.60;92.60
45837;DHT22;31548;51.420;-0.040;2023-07-20T12:38:11;24.20;93.40
45837;DHT22;31548;51.420;-0.040;2023-07-20T12:40:39;24.30;92.20
45837;DHT22;31548;51.420;-0.040;2023-07-20T12:43:08;24.40;91.40
45837;DHT22;31548;51.420;-0.040;2023-07-20T12:45:35;24.60;91.60
45837;DHT22;31548;51.420;-0.040;2023-07-20T12:48:03;24.60;92.40
45837;DHT22;31548;51.420;-0.040;2023-07-20T12:50:30;24.60;91.30
45837;DHT22;31548;51.420;-0.040;2023-07-20T12:52:58;25.10;91.30
45837;DHT22;31548;51.420;-0.040;2023-07-20T12:55:25;25.10;90.30
45837;DHT22;31548;51.420;-0.040;2023-07-20T12:57:53;25.00;91.40
45837;DHT22;31548;51.420;-0.040;2023-07-20T13:00:20;24.70;90.30
45837;DHT22;31548;51.420;-0.040;2023-07-20T13:02:51;24.50;90.30
45837;DHT22;31548;51.420;-0.040;2023-07-20T13:05:35;23.80;90.40
45837;DHT22;31548;51.420;-0.040;2023-07-20T13:08:06;23.70;91.00
45837;DHT22;31548;51.420;-0.040;2023-07-20T13:10:36;23.60;90.90
45837;DHT22;31548;51.420;-0.040;2023-07-20T13:13:04;23.70;90.80
45837;DHT22;31548;51.420;-0.040;2023-07-20T13:15:32;24.20;91.10
45837;DHT22;31548;51.420;-0.040;2023-07-20T13:18:07;24.80;90.60
45837;DHT22;31548;51.420;-0.040;2023-07-20T13:20:34;24.90;90.10
45837;DHT22;31548;51.420;-0.040;2023-07-20T13:23:01;24.60;90.10
45837;DHT22;31548;51.420;-0.040;2023-07-20T13:25:29;24.80;90.10
45837;DHT22;31548;51.420;-0.040;2023-07-20T13:27:56;24.70;89.80
45837;DHT22;31548;51.420;-0.040;2023-07-20T13:30:23;24.80;89.70
45837;DHT22;31548;51.420;-0.040;2023-07-20T13:32:51;25.10;88.80
45837;DHT22;31548;51.420;-0.040;2023-07-20T13:35:18;25.40;89.80
45837;DHT22;31548;51.420;-0.040;2023-07-20T13:37:46;25.40;88.30
45837;DHT22;31548;51.420;-0.040;2023-07-20T13:40:15;25.90;87.90
45837;DHT22;31548;51.420;-0.040;2023-07-20T13:42:44;26.30;86.90
45837;DHT22;31548;51.420;-0.040;2023-07-20T13:45:12;26.50;85.90
45837;DHT22;31548;51.420;-0.040;2023-07-20T13:47:41;26.70;86.50
45837;DHT22;31548;51.420;-0.040;2023-07-20T13:50:12;26.90;83.60
45837;DHT22;31548;51.420;-0.040;2023-07-20T13:52:53;27.30;84.70
45837;DHT22;31548;51.420;-0.040;2023-07-20T13:55:40;27.40;81.50
45837;DHT22;31548;51.420;-0.040;2023-07-20T13:58:10;27.20;84.40
45837;DHT22;31548;51.420;-0.040;2023-07-20T14:00:40;27.10;83.40
45837;DHT22;31548;51.420;-0.040;2023-07-20T14:03:08;26.60;83.80
45837;DHT22;31548;51.420;-0.040;2023-07-20T14:05:39;26.00;84.10
45837;DHT22;31548;51.420;-0.040;2023-07-20T14:08:09;25.40;83.90
45837;DHT22;31548;51.420;-0.040;2023-07-20T14:10:37;25.10;85.50
45837;DHT22;31548;51.420;-0.040;2023-07-20T14:13:08;24.90;85.70
45837;DHT22;31548;51.420;-0.040;2023-07-20T14:15:35;25.00;84.90
45837;DHT22;31548;51.420;-0.040;2023-07-20T14:18:03;25.10;84.70
45837;DHT22;31548;51.420;-0.040;2023-07-20T14:20:30;24.90;84.00
45837;DHT22;31548;51.420;-0.040;2023-07-20T14:22:57;24.90;84.60
45837;DHT22;31548;51.420;-0.040;2023-07-20T14:25:25;25.10;85.10
45837;DHT22;31548;51.420;-0.040;2023-07-20T14:27:57;24.90;83.50
45837;DHT22;31548;51.420;-0.040;2023-07-20T14:30:25;24.60;83.70
45837;DHT22;31548;51.420;-0.040;2023-07-20T14:32:52;24.80;82.80
45837;DHT22;31548;51.420;-0.040;2023-07-20T14:35:20;24.90;83.60
45837;DHT22;31548;51.420;-0.040;2023-07-20T14:37:47;25.00;85.50
45837;DHT22;31548;51.420;-0.040;2023-07-20T14:40:15;24.90;85.60
45837;DHT22;31548;51.420;-0.040;2023-07-20T14:42:42;24.70;85.40
45837;DHT22;31548;51.420;-0.040;2023-07-20T14:45:09;24.90;85.20
45837;DHT22;31548;51.420;-0.040;2023-07-20T14:47:37;24.90;85.80
45837;DHT22;31548;51.420;-0.040;2023-07-20T14:50:06;25.10;85.60
45837;DHT22;31548;51.420;-0.040;2023-07-20T14:52:33;25.00;85.30
45837;DHT22;31548;51.420;-0.040;2023-07-20T14:55:01;25.40;84.60
45837;DHT22;31548;51.420;-0.040;2023-07-20T14:57:28;25.90;83.40
45837;DHT22;31548;51.420;-0.040;2023-07-20T14:59:55;26.70;83.70
45837;DHT22;31548;51.420;-0.040;2023-07-20T15:02:23;27.30;83.10
45837;DHT22;31548;51.420;-0.040;2023-07-20T15:04:50;27.90;81.60
45837;DHT22;31548;51.420;-0.040;2023-07-20T15:07:19;28.40;80.80
45837;DHT22;31548;51.420;-0.040;2023-07-20T15:09:47;28.70;79.50
45837;DHT22;31548;51.420;-0.040;2023-07-20T15:12:14;28.50;78.20
45837;DHT22;31548;51.420;-0.040;2023-07-20T15:14:42;28.70;78.60
45837;DHT22;31548;51.420;-0.040;2023-07-20T15:17:10;28.90;79.30
45837;DHT22;31548;51.420;-0.040;2023-07-20T15:19:38;28.40;77.70
45837;DHT22;31548;51.420;-0.040;2023-07-20T15:22:05;28.40;76.80
45837;DHT22;31548;51.420;-0.040;2023-07-20T15:24:34;28.00;76.10
45837;DHT22;31548;51.420;-0.040;2023-07-20T15:27:03;27.40;75.50
45837;DHT22;31548;51.420;-0.040;2023-07-20T15:29:31;27.10;76.50
45837;DHT22;31548;51.420;-0.040;2023-07-20T15:32:01;27.30;77.50
45837;DHT22;31548;51.420;-0.040;2023-07-20T15:34:29;28.10;77.00
45837;DHT22;31548;51.420;-0.040;2023-07-20T15:36:56;27.90;75.10
45837;DHT22;31548;51.420;-0.040;2023-07-20T15:39:24;27.60;74.40
45837;DHT22;31548;51.420;-0.040;2023-07-20T15:41:51;27.60;75.80
45837;DHT22;31548;51.420;-0.040;2023-07-20T15:44:19;28.00;74.40